weather.gov     
National Weather Service

Terminal Aerodrome Forecast
NWS Homepage
This page is being discontinued on March 12, 2014.
The same data is available at this site. Please update your bookmarks.
Thank you, and we apologize for the inconvenience.
Please send an email to SR-SRH.Webmaster@noaa.gov with any concerns.


Current Version
Previous Version:    01  02  03  04  05  06  07  08  09  10  11  12  13  14  15  16  17  18  19  20  21  22  23  24  25  26  27  28  29  30  
   31  32  33  34  35  36  37  
[Printable]
217
FTAK31 PAJN 292300
TAFAGY
TAF
PAGY 292340Z 3000/3024 21010KT P6SM -SHRA BKN060 OVC080
      TEMPO 3000/3004 21011G18KT 6SM -SHRA BR BKN040 OVC060
     FM300600 21006KT P6SM -SHRA SCT025 OVC050
     FM301400 21008KT P6SM BCFG VCSH SCT005 SCT025 OVC050
     FM301800 21011KT P6SM VCSH SCT025 BKN050
     FM302100 21015G25KT P6SM BKN050
      AMD LTD TO CLD VIS AND WIND=


U.S. Dept. of Commerce
NOAA National Weather Service
1325 East West Highway
Silver Spring, MD 20910
E-mail: w-nws.webmaster@noaa.gov
Page last modified: May 16, 2007
NATIONAL WEATHER SERVICE: for Safety, for Work, for Fun - FOR LIFE